sensor_id;sensor_type;location;lat;lon;timestamp;temperature;humidity
11538;DHT22;50159;49.426;11.182;2023-10-13T00:01:34;14.80;99.90
11538;DHT22;50159;49.426;11.182;2023-10-13T00:04:01;14.80;99.90
11538;DHT22;50159;49.426;11.182;2023-10-13T00:06:28;14.80;99.90
11538;DHT22;50159;49.426;11.182;2023-10-13T00:08:56;14.80;99.90
11538;DHT22;50159;49.426;11.182;2023-10-13T00:11:22;14.80;99.90
11538;DHT22;50159;49.426;11.182;2023-10-13T00:13:49;14.80;99.90
11538;DHT22;50159;49.426;11.182;2023-10-13T00:16:21;14.80;99.90
11538;DHT22;50159;49.426;11.182;2023-10-13T00:18:50;14.80;99.90
11538;DHT22;50159;49.426;11.182;2023-10-13T00:21:21;14.80;99.90
11538;DHT22;50159;49.426;11.182;2023-10-13T00:24:02;14.80;99.90
11538;DHT22;50159;49.426;11.182;2023-10-13T00:26:32;14.80;99.90
11538;DHT22;50159;49.426;11.182;2023-10-13T00:29:09;14.80;99.90
11538;DHT22;50159;49.426;11.182;2023-10-13T00:31:43;14.80;99.90
11538;DHT22;50159;49.426;11.182;2023-10-13T00:34:14;14.80;99.90
11538;DHT22;50159;49.426;11.182;2023-10-13T00:36:55;14.80;99.90
11538;DHT22;50159;49.426;11.182;2023-10-13T00:39:40;14.80;99.90
11538;DHT22;50159;49.426;11.182;2023-10-13T00:42:15;14.80;99.90
11538;DHT22;50159;49.426;11.182;2023-10-13T00:44:46;14.80;99.90
11538;DHT22;50159;49.426;11.182;2023-10-13T00:47:17;14.80;99.90
11538;DHT22;50159;49.426;11.182;2023-10-13T00:50:04;14.80;99.90
11538;DHT22;50159;49.426;11.182;2023-10-13T00:52:34;14.80;99.90
11538;DHT22;50159;49.426;11.182;2023-10-13T00:55:03;14.90;99.90
11538;DHT22;50159;49.426;11.182;2023-10-13T00:57:31;14.90;99.90
11538;DHT22;50159;49.426;11.182;2023-10-13T00:59:59;14.90;99.90
11538;DHT22;50159;49.426;11.182;2023-10-13T01:02:39;14.90;99.90
11538;DHT22;50159;49.426;11.182;2023-10-13T01:05:07;14.80;99.90
11538;DHT22;50159;49.426;11.182;2023-10-13T01:07:39;14.80;99.90
11538;DHT22;50159;49.426;11.182;2023-10-13T01:10:10;14.80;99.90
11538;DHT22;50159;49.426;11.182;2023-10-13T01:12:41;14.80;99.90
11538;DHT22;50159;49.426;11.182;2023-10-13T01:15:12;14.80;99.90
11538;DHT22;50159;49.426;11.182;2023-10-13T01:17:45;14.80;99.90
11538;DHT22;50159;49.426;11.182;2023-10-13T01:20:16;14.80;99.90
11538;DHT22;50159;49.426;11.182;2023-10-13T01:22:52;14.80;99.90
11538;DHT22;50159;49.426;11.182;2023-10-13T01:25:23;14.80;99.90
11538;DHT22;50159;49.426;11.182;2023-10-13T01:27:54;14.80;99.90
11538;DHT22;50159;49.426;11.182;2023-10-13T01:30:21;14.80;99.90
11538;DHT22;50159;49.426;11.182;2023-10-13T01:32:53;14.80;99.90
11538;DHT22;50159;49.426;11.182;2023-10-13T01:35:21;14.80;99.90
11538;DHT22;50159;49.426;11.182;2023-10-13T01:38:02;14.80;99.90
11538;DHT22;50159;49.426;11.182;2023-10-13T01:40:29;14.80;99.90
11538;DHT22;50159;49.426;11.182;2023-10-13T01:43:00;14.80;99.90
11538;DHT22;50159;49.426;11.182;2023-10-13T01:45:27;14.80;99.90
11538;DHT22;50159;49.426;11.182;2023-10-13T01:47:56;14.80;99.90
11538;DHT22;50159;49.426;11.182;2023-10-13T01:50:23;14.80;99.90
11538;DHT22;50159;49.426;11.182;2023-10-13T01:52:57;14.80;99.90
11538;DHT22;50159;49.426;11.182;2023-10-13T01:55:40;14.80;99.90
11538;DHT22;50159;49.426;11.182;2023-10-13T01:58:14;14.80;99.90
11538;DHT22;50159;49.426;11.182;2023-10-13T02:00:45;14.80;99.90
11538;DHT22;50159;49.426;11.182;2023-10-13T02:03:15;14.80;99.90
11538;DHT22;50159;49.426;11.182;2023-10-13T02:05:44;14.80;99.90
11538;DHT22;50159;49.426;11.182;2023-10-13T02:08:21;14.80;99.90
11538;DHT22;50159;49.426;11.182;2023-10-13T02:10:56;14.80;99.90
11538;DHT22;50159;49.426;11.182;2023-10-13T02:13:25;14.80;99.90
11538;DHT22;50159;49.426;11.182;2023-10-13T02:15:56;14.80;99.90
11538;DHT22;50159;49.426;11.182;2023-10-13T02:18:24;14.80;99.90
11538;DHT22;50159;49.426;11.182;2023-10-13T02:20:55;14.80;99.90
11538;DHT22;50159;49.426;11.182;2023-10-13T02:23:24;14.80;99.90
11538;DHT22;50159;49.426;11.182;2023-10-13T02:25:51;14.80;99.90
11538;DHT22;50159;49.426;11.182;2023-10-13T02:28:27;14.80;99.90
11538;DHT22;50159;49.426;11.182;2023-10-13T02:30:56;14.80;99.90
11538;DHT22;50159;49.426;11.182;2023-10-13T02:33:24;14.80;99.90
11538;DHT22;50159;49.426;11.182;2023-10-13T02:35:57;14.80;99.90
11538;DHT22;50159;49.426;11.182;2023-10-13T02:38:32;14.80;99.90
11538;DHT22;50159;49.426;11.182;2023-10-13T02:41:00;14.80;99.90
11538;DHT22;50159;49.426;11.182;2023-10-13T02:43:34;14.80;99.90
11538;DHT22;50159;49.426;11.182;2023-10-13T02:46:02;14.80;99.90
11538;DHT22;50159;49.426;11.182;2023-10-13T02:48:30;14.80;99.90
11538;DHT22;50159;49.426;11.182;2023-10-13T02:51:07;14.80;99.90
11538;DHT22;50159;49.426;11.182;2023-10-13T02:53:45;14.80;99.90
11538;DHT22;50159;49.426;11.182;2023-10-13T02:56:17;14.80;99.90
11538;DHT22;50159;49.426;11.182;2023-10-13T02:58:49;14.80;99.90
11538;DHT22;50159;49.426;11.182;2023-10-13T03:01:20;14.80;99.90
11538;DHT22;50159;49.426;11.182;2023-10-13T03:03:50;14.80;99.90
11538;DHT22;50159;49.426;11.182;2023-10-13T03:06:27;14.80;99.90
11538;DHT22;50159;49.426;11.182;2023-10-13T03:09:04;14.80;99.90
11538;DHT22;50159;49.426;11.182;2023-10-13T03:11:49;14.70;99.90
11538;DHT22;50159;49.426;11.182;2023-10-13T03:14:22;14.70;99.90
11538;DHT22;50159;49.426;11.182;2023-10-13T03:17:08;14.70;99.90
11538;DHT22;50159;49.426;11.182;2023-10-13T03:19:44;14.70;99.90
11538;DHT22;50159;49.426;11.182;2023-10-13T03:22:18;14.60;99.90
11538;DHT22;50159;49.426;11.182;2023-10-13T03:24:45;14.70;99.90
11538;DHT22;50159;49.426;11.182;2023-10-13T03:27:16;14.70;99.90
11538;DHT22;50159;49.426;11.182;2023-10-13T03:29:50;14.60;99.90
11538;DHT22;50159;49.426;11.182;2023-10-13T03:32:23;14.60;99.90
11538;DHT22;50159;49.426;11.182;2023-10-13T03:34:53;14.60;99.90
11538;DHT22;50159;49.426;11.182;2023-10-13T03:37:26;14.60;99.90
11538;DHT22;50159;49.426;11.182;2023-10-13T03:40:06;14.60;99.90
11538;DHT22;50159;49.426;11.182;2023-10-13T03:42:42;14.60;99.90
11538;DHT22;50159;49.426;11.182;2023-10-13T03:45:09;14.60;99.90
11538;DHT22;50159;49.426;11.182;2023-10-13T03:47:37;14.60;99.90
11538;DHT22;50159;49.426;11.182;2023-10-13T03:50:06;14.50;99.90
11538;DHT22;50159;49.426;11.182;2023-10-13T03:52:42;14.50;99.90
11538;DHT22;50159;49.426;11.182;2023-10-13T03:55:09;14.50;99.90
11538;DHT22;50159;49.426;11.182;2023-10-13T03:57:44;14.50;99.90
11538;DHT22;50159;49.426;11.182;2023-10-13T04:00:12;14.40;99.90
11538;DHT22;50159;49.426;11.182;2023-10-13T04:02:48;14.40;99.90
11538;DHT22;50159;49.426;11.182;2023-10-13T04:05:21;14.30;99.90
11538;DHT22;50159;49.426;11.182;2023-10-13T04:08:08;14.30;99.90
11538;DHT22;50159;49.426;11.182;2023-10-13T04:10:55;14.30;99.90
11538;DHT22;50159;49.426;11.182;2023-10-13T04:13:22;14.30;99.90
11538;DHT22;50159;49.426;11.182;2023-10-13T04:16:09;14.30;99.90
11538;DHT22;50159;49.426;11.182;2023-10-13T04:19:02;14.20;99.90
11538;DHT22;50159;49.426;11.182;2023-10-13T04:21:29;14.20;99.90
11538;DHT22;50159;49.426;11.182;2023-10-13T04:24:06;14.20;99.90
11538;DHT22;50159;49.426;11.182;2023-10-13T04:26:50;14.20;99.90
11538;DHT22;50159;49.426;11.182;2023-10-13T04:29:37;14.10;99.90
11538;DHT22;50159;49.426;11.182;2023-10-13T04:32:18;14.10;99.90
11538;DHT22;50159;49.426;11.182;2023-10-13T04:35:21;14.10;99.90
11538;DHT22;50159;49.426;11.182;2023-10-13T04:37:51;14.00;99.90
11538;DHT22;50159;49.426;11.182;2023-10-13T04:40:28;14.00;99.90
11538;DHT22;50159;49.426;11.182;2023-10-13T04:43:02;14.00;99.90
11538;DHT22;50159;49.426;11.182;2023-10-13T04:45:51;14.00;99.90
11538;DHT22;50159;49.426;11.182;2023-10-13T04:48:21;13.90;99.90
11538;DHT22;50159;49.426;11.182;2023-10-13T04:50:49;13.90;99.90
11538;DHT22;50159;49.426;11.182;2023-10-13T04:53:25;13.90;99.90
11538;DHT22;50159;49.426;11.182;2023-10-13T04:56:03;13.90;99.90
11538;DHT22;50159;49.426;11.182;2023-10-13T04:58:31;13.90;99.90
11538;DHT22;50159;49.426;11.182;2023-10-13T05:01:16;14.00;99.90
11538;DHT22;50159;49.426;11.182;2023-10-13T05:04:03;14.00;99.90
11538;DHT22;50159;49.426;11.182;2023-10-13T05:06:59;14.00;99.90
11538;DHT22;50159;49.426;11.182;2023-10-13T05:09:45;14.20;99.90
11538;DHT22;50159;49.426;11.182;2023-10-13T05:12:30;14.00;99.90
11538;DHT22;50159;49.426;11.182;2023-10-13T05:15:15;14.10;99.90
11538;DHT22;50159;49.426;11.182;2023-10-13T05:18:01;14.10;99.90
11538;DHT22;50159;49.426;11.182;2023-10-13T05:20:46;14.10;99.90
11538;DHT22;50159;49.426;11.182;2023-10-13T05:23:32;14.10;99.90
11538;DHT22;50159;49.426;11.182;2023-10-13T05:26:17;14.10;99.90
11538;DHT22;50159;49.426;11.182;2023-10-13T05:29:07;14.20;99.90
11538;DHT22;50159;49.426;11.182;2023-10-13T05:31:55;14.20;99.90
11538;DHT22;50159;49.426;11.182;2023-10-13T05:34:40;14.20;99.90
11538;DHT22;50159;49.426;11.182;2023-10-13T05:37:25;14.20;99.90
11538;DHT22;50159;49.426;11.182;2023-10-13T05:40:11;14.20;99.90
11538;DHT22;50159;49.426;11.182;2023-10-13T05:42:56;14.20;99.90
11538;DHT22;50159;49.426;11.182;2023-10-13T05:45:41;14.20;99.90
11538;DHT22;50159;49.426;11.182;2023-10-13T05:48:31;14.20;99.90
11538;DHT22;50159;49.426;11.182;2023-10-13T05:51:17;14.20;99.90
11538;DHT22;50159;49.426;11.182;2023-10-13T05:53:59;14.20;99.90
11538;DHT22;50159;49.426;11.182;2023-10-13T05:56:50;14.20;99.90
11538;DHT22;50159;49.426;11.182;2023-10-13T05:59:37;14.20;99.90
11538;DHT22;50159;49.426;11.182;2023-10-13T06:02:24;14.20;99.90
11538;DHT22;50159;49.426;11.182;2023-10-13T06:05:11;14.20;99.90
11538;DHT22;50159;49.426;11.182;2023-10-13T06:07:58;14.30;99.90
11538;DHT22;50159;49.426;11.182;2023-10-13T06:10:43;14.30;99.90
11538;DHT22;50159;49.426;11.182;2023-10-13T06:13:30;14.30;99.90
11538;DHT22;50159;49.426;11.182;2023-10-13T06:16:16;14.30;99.90
11538;DHT22;50159;49.426;11.182;2023-10-13T06:19:03;14.30;99.90
11538;DHT22;50159;49.426;11.182;2023-10-13T06:21:49;14.40;99.90
11538;DHT22;50159;49.426;11.182;2023-10-13T06:24:34;14.40;99.90
11538;DHT22;50159;49.426;11.182;2023-10-13T06:27:19;14.50;99.90
11538;DHT22;50159;49.426;11.182;2023-10-13T06:30:06;14.50;99.90
11538;DHT22;50159;49.426;11.182;2023-10-13T06:32:33;14.50;99.90
11538;DHT22;50159;49.426;11.182;2023-10-13T06:35:01;14.60;99.90
11538;DHT22;50159;49.426;11.182;2023-10-13T06:37:34;14.60;99.90
11538;DHT22;50159;49.426;11.182;2023-10-13T06:40:08;14.70;99.90
11538;DHT22;50159;49.426;11.182;2023-10-13T06:42:53;14.70;99.90
11538;DHT22;50159;49.426;11.182;2023-10-13T06:45:21;14.90;99.90
11538;DHT22;50159;49.426;11.182;2023-10-13T06:47:48;14.90;99.90
11538;DHT22;50159;49.426;11.182;2023-10-13T06:50:20;15.00;99.90
11538;DHT22;50159;49.426;11.182;2023-10-13T06:52:51;15.00;99.90
11538;DHT22;50159;49.426;11.182;2023-10-13T06:55:21;15.10;99.90
11538;DHT22;50159;49.426;11.182;2023-10-13T06:57:55;15.20;99.90
11538;DHT22;50159;49.426;11.182;2023-10-13T07:00:27;15.30;99.90
11538;DHT22;50159;49.426;11.182;2023-10-13T07:02:57;15.40;99.90
11538;DHT22;50159;49.426;11.182;2023-10-13T07:05:36;15.40;99.90
11538;DHT22;50159;49.426;11.182;2023-10-13T07:08:11;15.50;99.90
11538;DHT22;50159;49.426;11.182;2023-10-13T07:10:50;15.60;99.90
11538;DHT22;50159;49.426;11.182;2023-10-13T07:13:19;15.60;99.90
11538;DHT22;50159;49.426;11.182;2023-10-13T07:15:46;15.70;99.90
11538;DHT22;50159;49.426;11.182;2023-10-13T07:18:15;15.90;99.90
11538;DHT22;50159;49.426;11.182;2023-10-13T07:20:44;16.00;99.90
11538;DHT22;50159;49.426;11.182;2023-10-13T07:23:12;16.20;99.90
11538;DHT22;50159;49.426;11.182;2023-10-13T07:25:57;16.30;99.90
11538;DHT22;50159;49.426;11.182;2023-10-13T07:28:30;16.50;99.90
11538;DHT22;50159;49.426;11.182;2023-10-13T07:31:03;16.60;99.90
11538;DHT22;50159;49.426;11.182;2023-10-13T07:33:30;17.00;99.90
11538;DHT22;50159;49.426;11.182;2023-10-13T07:36:05;17.30;99.90
11538;DHT22;50159;49.426;11.182;2023-10-13T07:38:54;17.70;99.90
11538;DHT22;50159;49.426;11.182;2023-10-13T07:41:50;18.10;99.90
11538;DHT22;50159;49.426;11.182;2023-10-13T07:44:22;18.20;99.90
11538;DHT22;50159;49.426;11.182;2023-10-13T07:46:53;18.10;99.90
11538;DHT22;50159;49.426;11.182;2023-10-13T07:49:29;17.90;99.90
11538;DHT22;50159;49.426;11.182;2023-10-13T07:52:01;17.70;99.90
11538;DHT22;50159;49.426;11.182;2023-10-13T07:54:51;17.70;99.90
11538;DHT22;50159;49.426;11.182;2023-10-13T07:57:39;17.80;99.90
11538;DHT22;50159;49.426;11.182;2023-10-13T08:00:25;17.90;99.90
11538;DHT22;50159;49.426;11.182;2023-10-13T08:03:01;17.90;99.90
11538;DHT22;50159;49.426;11.182;2023-10-13T08:05:45;18.00;99.90
11538;DHT22;50159;49.426;11.182;2023-10-13T08:08:48;18.10;99.90
11538;DHT22;50159;49.426;11.182;2023-10-13T08:11:20;18.20;99.90
11538;DHT22;50159;49.426;11.182;2023-10-13T08:14:07;18.30;99.90
11538;DHT22;50159;49.426;11.182;2023-10-13T08:16:56;18.40;99.90
11538;DHT22;50159;49.426;11.182;2023-10-13T08:19:28;18.60;99.90
11538;DHT22;50159;49.426;11.182;2023-10-13T08:21:59;19.00;99.90
11538;DHT22;50159;49.426;11.182;2023-10-13T08:24:48;19.10;99.90
11538;DHT22;50159;49.426;11.182;2023-10-13T08:27:20;19.20;99.90
11538;DHT22;50159;49.426;11.182;2023-10-13T08:30:06;19.10;99.90
11538;DHT22;50159;49.426;11.182;2023-10-13T08:32:53;19.00;99.90
11538;DHT22;50159;49.426;11.182;2023-10-13T08:35:26;18.90;99.90
11538;DHT22;50159;49.426;11.182;2023-10-13T08:37:57;18.90;99.90
11538;DHT22;50159;49.426;11.182;2023-10-13T08:40:50;18.80;99.90
11538;DHT22;50159;49.426;11.182;2023-10-13T08:43:24;18.60;99.90
11538;DHT22;50159;49.426;11.182;2023-10-13T08:46:09;18.50;99.90
11538;DHT22;50159;49.426;11.182;2023-10-13T08:49:00;18.60;99.90
11538;DHT22;50159;49.426;11.182;2023-10-13T08:51:42;18.80;99.90
11538;DHT22;50159;49.426;11.182;2023-10-13T08:54:17;18.90;99.90
11538;DHT22;50159;49.426;11.182;2023-10-13T08:57:01;19.10;99.90
11538;DHT22;50159;49.426;11.182;2023-10-13T08:59:59;19.30;99.90
11538;DHT22;50159;49.426;11.182;2023-10-13T09:02:46;19.70;99.90
11538;DHT22;50159;49.426;11.182;2023-10-13T09:05:26;20.10;99.90
11538;DHT22;50159;49.426;11.182;2023-10-13T09:08:26;20.30;99.20
11538;DHT22;50159;49.426;11.182;2023-10-13T09:11:17;20.50;97.40
11538;DHT22;50159;49.426;11.182;2023-10-13T09:13:53;20.60;96.80
11538;DHT22;50159;49.426;11.182;2023-10-13T09:16:19;20.70;95.90
11538;DHT22;50159;49.426;11.182;2023-10-13T09:19:09;20.80;95.70
11538;DHT22;50159;49.426;11.182;2023-10-13T09:21:39;21.10;95.30
11538;DHT22;50159;49.426;11.182;2023-10-13T09:24:12;21.30;94.20
11538;DHT22;50159;49.426;11.182;2023-10-13T09:26:50;21.40;93.30
11538;DHT22;50159;49.426;11.182;2023-10-13T09:29:22;21.50;94.10
11538;DHT22;50159;49.426;11.182;2023-10-13T09:32:02;21.70;93.80
11538;DHT22;50159;49.426;11.182;2023-10-13T09:34:31;22.10;93.80
11538;DHT22;50159;49.426;11.182;2023-10-13T09:37:02;22.40;92.00
11538;DHT22;50159;49.426;11.182;2023-10-13T09:39:33;22.80;92.20
11538;DHT22;50159;49.426;11.182;2023-10-13T09:42:14;22.90;90.30
11538;DHT22;50159;49.426;11.182;2023-10-13T09:44:48;22.80;86.00
11538;DHT22;50159;49.426;11.182;2023-10-13T09:47:22;22.80;85.00
11538;DHT22;50159;49.426;11.182;2023-10-13T09:50:04;22.90;85.50
11538;DHT22;50159;49.426;11.182;2023-10-13T09:52:43;23.30;85.80
11538;DHT22;50159;49.426;11.182;2023-10-13T09:55:27;23.60;84.60
11538;DHT22;50159;49.426;11.182;2023-10-13T09:58:04;23.80;79.80
11538;DHT22;50159;49.426;11.182;2023-10-13T10:00:47;23.80;79.30
11538;DHT22;50159;49.426;11.182;2023-10-13T10:03:25;23.70;78.10
11538;DHT22;50159;49.426;11.182;2023-10-13T10:06:02;23.50;76.10
11538;DHT22;50159;49.426;11.182;2023-10-13T10:08:43;23.30;77.10
11538;DHT22;50159;49.426;11.182;2023-10-13T10:11:42;23.10;76.30
11538;DHT22;50159;49.426;11.182;2023-10-13T10:14:57;22.90;77.10
11538;DHT22;50159;49.426;11.182;2023-10-13T10:17:42;22.90;78.00
11538;DHT22;50159;49.426;11.182;2023-10-13T10:20:10;23.10;77.30
11538;DHT22;50159;49.426;11.182;2023-10-13T10:22:59;23.50;78.40
11538;DHT22;50159;49.426;11.182;2023-10-13T10:25:31;23.70;75.40
11538;DHT22;50159;49.426;11.182;2023-10-13T10:28:06;23.80;73.10
11538;DHT22;50159;49.426;11.182;2023-10-13T10:30:36;23.90;69.70
11538;DHT22;50159;49.426;11.182;2023-10-13T10:33:05;23.90;69.00
11538;DHT22;50159;49.426;11.182;2023-10-13T10:35:44;24.00;66.00
11538;DHT22;50159;49.426;11.182;2023-10-13T10:38:17;24.00;67.00
11538;DHT22;50159;49.426;11.182;2023-10-13T10:41:01;24.10;67.00
11538;DHT22;50159;49.426;11.182;2023-10-13T10:43:37;24.30;67.70
11538;DHT22;50159;49.426;11.182;2023-10-13T10:46:26;24.30;66.90
11538;DHT22;50159;49.426;11.182;2023-10-13T10:48:57;24.10;66.60
11538;DHT22;50159;49.426;11.182;2023-10-13T10:51:28;23.80;65.10
11538;DHT22;50159;49.426;11.182;2023-10-13T10:53:59;23.70;66.60
11538;DHT22;50159;49.426;11.182;2023-10-13T10:56:38;23.80;68.60
11538;DHT22;50159;49.426;11.182;2023-10-13T10:59:06;24.20;69.20
11538;DHT22;50159;49.426;11.182;2023-10-13T11:01:43;24.50;67.30
11538;DHT22;50159;49.426;11.182;2023-10-13T11:04:14;24.80;65.20
11538;DHT22;50159;49.426;11.182;2023-10-13T11:06:47;25.00;63.80
11538;DHT22;50159;49.426;11.182;2023-10-13T11:09:14;25.10;61.50
11538;DHT22;50159;49.426;11.182;2023-10-13T11:11:54;25.20;61.30
11538;DHT22;50159;49.426;11.182;2023-10-13T11:14:27;25.40;61.00
11538;DHT22;50159;49.426;11.182;2023-10-13T11:16:56;25.40;58.30
11538;DHT22;50159;49.426;11.182;2023-10-13T11:19:38;25.50;58.80
11538;DHT22;50159;49.426;11.182;2023-10-13T11:22:11;25.80;59.80
11538;DHT22;50159;49.426;11.182;2023-10-13T11:24:56;26.10;58.60
11538;DHT22;50159;49.426;11.182;2023-10-13T11:27:33;26.20;57.10
11538;DHT22;50159;49.426;11.182;2023-10-13T11:30:16;26.40;56.10
11538;DHT22;50159;49.426;11.182;2023-10-13T11:33:04;26.60;56.40
11538;DHT22;50159;49.426;11.182;2023-10-13T11:35:39;26.60;52.80
11538;DHT22;50159;49.426;11.182;2023-10-13T11:41:07;26.70;54.00
11538;DHT22;50159;49.426;11.182;2023-10-13T11:43:39;26.90;55.30
11538;DHT22;50159;49.426;11.182;2023-10-13T11:46:23;27.10;55.90
11538;DHT22;50159;49.426;11.182;2023-10-13T11:49:09;27.20;52.30
11538;DHT22;50159;49.426;11.182;2023-10-13T11:51:44;27.30;52.20
11538;DHT22;50159;49.426;11.182;2023-10-13T11:54:13;27.40;52.30
11538;DHT22;50159;49.426;11.182;2023-10-13T11:56:42;27.60;52.50
11538;DHT22;50159;49.426;11.182;2023-10-13T11:59:09;27.80;51.50
11538;DHT22;50159;49.426;11.182;2023-10-13T12:01:49;28.00;50.20
11538;DHT22;50159;49.426;11.182;2023-10-13T12:04:37;27.90;48.30
11538;DHT22;50159;49.426;11.182;2023-10-13T12:07:10;27.80;48.10
11538;DHT22;50159;49.426;11.182;2023-10-13T12:09:55;27.60;46.50
11538;DHT22;50159;49.426;11.182;2023-10-13T12:12:23;27.60;48.20
11538;DHT22;50159;49.426;11.182;2023-10-13T12:14:52;27.60;47.10
11538;DHT22;50159;49.426;11.182;2023-10-13T12:17:26;27.50;45.80
11538;DHT22;50159;49.426;11.182;2023-10-13T12:20:04;27.60;45.10
11538;DHT22;50159;49.426;11.182;2023-10-13T12:22:37;27.70;45.50
11538;DHT22;50159;49.426;11.182;2023-10-13T12:25:09;27.80;44.50
11538;DHT22;50159;49.426;11.182;2023-10-13T12:27:55;27.70;44.30
11538;DHT22;50159;49.426;11.182;2023-10-13T12:30:26;27.30;43.00
11538;DHT22;50159;49.426;11.182;2023-10-13T12:33:03;26.90;44.60
11538;DHT22;50159;49.426;11.182;2023-10-13T12:35:41;26.70;46.20
11538;DHT22;50159;49.426;11.182;2023-10-13T12:38:25;26.60;48.20
11538;DHT22;50159;49.426;11.182;2023-10-13T12:41:10;26.60;50.00
11538;DHT22;50159;49.426;11.182;2023-10-13T12:44:03;26.70;48.00
11538;DHT22;50159;49.426;11.182;2023-10-13T12:46:51;26.50;48.50
11538;DHT22;50159;49.426;11.182;2023-10-13T12:49:37;26.30;49.70
11538;DHT22;50159;49.426;11.182;2023-10-13T12:52:12;26.60;50.50
11538;DHT22;50159;49.426;11.182;2023-10-13T12:54:59;26.70;50.70
11538;DHT22;50159;49.426;11.182;2023-10-13T12:57:33;26.90;51.30
11538;DHT22;50159;49.426;11.182;2023-10-13T13:00:00;27.00;51.40
11538;DHT22;50159;49.426;11.182;2023-10-13T13:02:29;26.90;49.50
11538;DHT22;50159;49.426;11.182;2023-10-13T13:04:57;26.90;50.10
11538;DHT22;50159;49.426;11.182;2023-10-13T13:07:32;27.30;48.80
11538;DHT22;50159;49.426;11.182;2023-10-13T13:10:10;27.70;46.20
11538;DHT22;50159;49.426;11.182;2023-10-13T13:12:38;28.00;45.40
11538;DHT22;50159;49.426;11.182;2023-10-13T13:15:06;28.10;44.30
11538;DHT22;50159;49.426;11.182;2023-10-13T13:17:39;28.10;43.00
11538;DHT22;50159;49.426;11.182;2023-10-13T13:20:07;27.80;43.40
11538;DHT22;50159;49.426;11.182;2023-10-13T13:23:01;27.70;45.00
11538;DHT22;50159;49.426;11.182;2023-10-13T13:25:31;27.80;45.50
11538;DHT22;50159;49.426;11.182;2023-10-13T13:27:59;27.80;45.50
11538;DHT22;50159;49.426;11.182;2023-10-13T13:30:31;27.90;44.20
11538;DHT22;50159;49.426;11.182;2023-10-13T13:33:01;27.80;45.30
11538;DHT22;50159;49.426;11.182;2023-10-13T13:35:41;27.60;45.20
11538;DHT22;50159;49.426;11.182;2023-10-13T13:38:10;28.00;45.50
11538;DHT22;50159;49.426;11.182;2023-10-13T13:40:43;28.60;44.00
11538;DHT22;50159;49.426;11.182;2023-10-13T13:43:16;29.40;42.50
11538;DHT22;50159;49.426;11.182;2023-10-13T13:46:02;29.40;42.80
11538;DHT22;50159;49.426;11.182;2023-10-13T13:48:29;29.00;43.60
11538;DHT22;50159;49.426;11.182;2023-10-13T13:50:57;28.80;44.30
11538;DHT22;50159;49.426;11.182;2023-10-13T13:53:31;28.70;46.40
11538;DHT22;50159;49.426;11.182;2023-10-13T13:56:04;28.90;43.90
11538;DHT22;50159;49.426;11.182;2023-10-13T13:58:31;29.40;45.50
11538;DHT22;50159;49.426;11.182;2023-10-13T14:01:04;32.10;42.10
11538;DHT22;50159;49.426;11.182;2023-10-13T14:03:42;34.80;36.10
11538;DHT22;50159;49.426;11.182;2023-10-13T14:06:20;36.70;31.90
11538;DHT22;50159;49.426;11.182;2023-10-13T14:08:55;37.80;30.00
11538;DHT22;50159;49.426;11.182;2023-10-13T14:11:24;37.80;26.50
11538;DHT22;50159;49.426;11.182;2023-10-13T14:14:12;36.20;27.60
11538;DHT22;50159;49.426;11.182;2023-10-13T14:16:47;33.60;29.70
11538;DHT22;50159;49.426;11.182;2023-10-13T14:19:14;31.30;34.20
11538;DHT22;50159;49.426;11.182;2023-10-13T14:21:54;30.00;37.30
11538;DHT22;50159;49.426;11.182;2023-10-13T14:24:23;29.00;39.90
11538;DHT22;50159;49.426;11.182;2023-10-13T14:27:16;28.70;40.40
11538;DHT22;50159;49.426;11.182;2023-10-13T14:29:48;28.20;40.80
11538;DHT22;50159;49.426;11.182;2023-10-13T14:32:21;27.90;41.70
11538;DHT22;50159;49.426;11.182;2023-10-13T14:34:51;27.50;42.60
11538;DHT22;50159;49.426;11.182;2023-10-13T14:37:23;27.20;43.80
11538;DHT22;50159;49.426;11.182;2023-10-13T14:39:53;26.90;44.10
11538;DHT22;50159;49.426;11.182;2023-10-13T14:42:25;26.50;44.00
11538;DHT22;50159;49.426;11.182;2023-10-13T14:44:53;26.10;43.90
11538;DHT22;50159;49.426;11.182;2023-10-13T14:47:24;25.80;44.50
11538;DHT22;50159;49.426;11.182;2023-10-13T14:49:56;25.60;46.10
11538;DHT22;50159;49.426;11.182;2023-10-13T14:52:30;25.30;45.70
11538;DHT22;50159;49.426;11.182;2023-10-13T14:54:59;25.20;47.60
11538;DHT22;50159;49.426;11.182;2023-10-13T14:57:26;25.50;49.00
11538;DHT22;50159;49.426;11.182;2023-10-13T14:59:54;25.50;49.40
11538;DHT22;50159;49.426;11.182;2023-10-13T15:02:22;25.40;50.00
11538;DHT22;50159;49.426;11.182;2023-10-13T15:04:49;25.30;51.30
11538;DHT22;50159;49.426;11.182;2023-10-13T15:07:17;25.10;51.80
11538;DHT22;50159;49.426;11.182;2023-10-13T15:09:46;25.00;53.30
11538;DHT22;50159;49.426;11.182;2023-10-13T15:12:13;24.90;54.20
11538;DHT22;50159;49.426;11.182;2023-10-13T15:14:46;24.80;53.80
11538;DHT22;50159;49.426;11.182;2023-10-13T15:17:16;24.60;54.60
11538;DHT22;50159;49.426;11.182;2023-10-13T15:19:45;24.50;55.10
11538;DHT22;50159;49.426;11.182;2023-10-13T15:22:12;24.50;54.80
11538;DHT22;50159;49.426;11.182;2023-10-13T15:24:52;24.60;54.90
11538;DHT22;50159;49.426;11.182;2023-10-13T15:27:35;24.50;53.80
11538;DHT22;50159;49.426;11.182;2023-10-13T15:30:08;24.50;53.10
11538;DHT22;50159;49.426;11.182;2023-10-13T15:32:57;24.60;52.90
11538;DHT22;50159;49.426;11.182;2023-10-13T15:35:24;24.60;53.10
11538;DHT22;50159;49.426;11.182;2023-10-13T15:37:55;24.50;53.60
11538;DHT22;50159;49.426;11.182;2023-10-13T15:40:22;24.50;55.10
11538;DHT22;50159;49.426;11.182;2023-10-13T15:42:50;24.40;54.70
11538;DHT22;50159;49.426;11.182;2023-10-13T15:45:17;24.30;55.60
11538;DHT22;50159;49.426;11.182;2023-10-13T15:47:47;24.10;55.60
11538;DHT22;50159;49.426;11.182;2023-10-13T15:50:17;24.00;56.30
11538;DHT22;50159;49.426;11.182;2023-10-13T15:52:48;23.90;57.20
11538;DHT22;50159;49.426;11.182;2023-10-13T15:55:15;23.70;57.70
11538;DHT22;50159;49.426;11.182;2023-10-13T15:57:44;23.50;57.60
11538;DHT22;50159;49.426;11.182;2023-10-13T16:00:11;23.40;57.50
11538;DHT22;50159;49.426;11.182;2023-10-13T16:03:01;23.30;58.80
11538;DHT22;50159;49.426;11.182;2023-10-13T16:05:29;23.10;60.70
11538;DHT22;50159;49.426;11.182;2023-10-13T16:08:01;22.90;62.70
11538;DHT22;50159;49.426;11.182;2023-10-13T16:10:30;22.60;64.30
11538;DHT22;50159;49.426;11.182;2023-10-13T16:12:56;22.40;65.70